createdAt,value
2024-02-09T00:02:28.432Z,8.11
2024-02-09T00:04:58.316Z,8.22
2024-02-09T00:07:30.908Z,8.25
2024-02-09T00:10:01.021Z,8.22
2024-02-09T00:12:31.283Z,8.25
2024-02-09T00:15:01.584Z,8.30
2024-02-09T00:17:34.210Z,8.28
2024-02-09T00:20:08.899Z,8.32
2024-02-09T00:22:42.163Z,8.43
2024-02-09T00:25:12.850Z,8.46
2024-02-09T00:27:44.705Z,8.53
2024-02-09T00:30:15.075Z,8.51
2024-02-09T00:32:45.009Z,8.57
2024-02-09T00:35:15.007Z,8.57
2024-02-09T00:37:47.806Z,8.58
2024-02-09T00:40:18.040Z,8.64
2024-02-09T00:42:47.948Z,8.63
2024-02-09T00:45:18.032Z,8.63
2024-02-09T00:47:48.650Z,8.62
2024-02-09T00:50:20.225Z,8.69
2024-02-09T00:52:55.973Z,8.66
2024-02-09T00:55:30.720Z,8.65
2024-02-09T00:58:02.755Z,8.67
2024-02-09T01:00:34.281Z,8.67
2024-02-09T01:03:05.454Z,8.70
2024-02-09T01:05:37.383Z,8.66
2024-02-09T01:08:10.186Z,8.73
2024-02-09T01:10:40.796Z,8.75
2024-02-09T01:13:23.268Z,8.85
2024-02-09T01:16:05.713Z,8.79
2024-02-09T01:18:48.165Z,8.84
2024-02-09T01:21:30.544Z,8.86
2024-02-09T01:24:15.473Z,8.93
2024-02-09T01:26:57.752Z,8.87
2024-02-09T01:29:40.088Z,8.94
2024-02-09T01:32:22.832Z,8.85
2024-02-09T01:35:06.435Z,8.84
2024-02-09T01:37:48.816Z,8.81
2024-02-09T01:40:33.971Z,8.77
2024-02-09T01:43:17.121Z,8.80
2024-02-09T01:46:04.958Z,8.78
2024-02-09T01:48:47.732Z,8.80
2024-02-09T01:51:31.067Z,8.76
2024-02-09T01:54:13.942Z,8.68
2024-02-09T01:56:59.012Z,8.60
2024-02-09T01:59:41.668Z,8.54
2024-02-09T02:02:24.050Z,8.47
2024-02-09T02:05:09.541Z,8.51
2024-02-09T02:07:53.718Z,8.45
2024-02-09T02:10:35.802Z,8.44
2024-02-09T02:13:20.720Z,8.52
2024-02-09T02:16:12.500Z,8.52
2024-02-09T02:18:54.983Z,8.52
2024-02-09T02:21:37.350Z,8.55
2024-02-09T02:24:20.341Z,8.59
2024-02-09T02:27:04.471Z,8.80
2024-02-09T02:29:51.649Z,8.84
2024-02-09T02:32:34.028Z,8.89
2024-02-09T02:35:16.424Z,8.84
2024-02-09T02:37:58.759Z,8.89
2024-02-09T02:40:41.185Z,8.80
2024-02-09T02:43:08.405Z,8.89
2024-02-09T02:45:43.497Z,8.85
2024-02-09T02:48:27.042Z,8.87
2024-02-09T02:51:22.827Z,8.75
2024-02-09T02:54:05.090Z,8.69
2024-02-09T02:56:47.424Z,8.72
2024-02-09T02:59:29.803Z,8.68
2024-02-09T03:02:14.742Z,8.70
2024-02-09T03:04:44.902Z,8.70
2024-02-09T03:07:49.630Z,8.64
2024-02-09T03:10:05.293Z,8.70
2024-02-09T03:12:35.196Z,8.71
2024-02-09T03:15:05.485Z,8.73
2024-02-09T03:17:38.069Z,8.71
2024-02-09T03:20:09.386Z,8.71
2024-02-09T03:22:40.021Z,8.66
2024-02-09T03:25:10.284Z,8.62
2024-02-09T03:27:41.819Z,8.63
2024-02-09T03:30:12.966Z,8.61
2024-02-09T03:32:45.967Z,8.52
2024-02-09T03:35:16.516Z,8.41
2024-02-09T03:37:48.315Z,8.29
2024-02-09T03:40:18.664Z,8.31
2024-02-09T03:42:48.631Z,8.39
2024-02-09T03:45:19.640Z,8.38
2024-02-09T03:47:52.573Z,8.45
2024-02-09T03:50:22.472Z,8.39
2024-02-09T03:52:52.427Z,8.37
2024-02-09T03:55:22.459Z,8.42
2024-02-09T03:57:52.367Z,8.47
2024-02-09T04:00:22.625Z,8.42
2024-02-09T04:02:57.720Z,8.44
2024-02-09T04:05:31.716Z,8.49
2024-02-09T04:08:05.740Z,8.44
2024-02-09T04:10:43.609Z,8.42
2024-02-09T04:13:16.414Z,8.39
2024-02-09T04:15:49.087Z,8.38
2024-02-09T04:18:21.644Z,8.44
2024-02-09T04:20:51.609Z,8.29
2024-02-09T04:23:21.508Z,8.32
2024-02-09T04:25:51.499Z,8.37
2024-02-09T04:28:21.555Z,8.30
2024-02-09T04:30:51.486Z,8.32
2024-02-09T04:33:25.477Z,8.38
2024-02-09T04:35:59.883Z,8.40
2024-02-09T04:38:29.996Z,8.33
2024-02-09T04:40:59.993Z,8.42
2024-02-09T04:43:29.961Z,8.40
2024-02-09T04:46:00.043Z,8.38
2024-02-09T04:48:32.746Z,8.32
2024-02-09T04:51:02.683Z,8.28
2024-02-09T04:53:32.757Z,8.29
2024-02-09T04:56:02.726Z,8.25
2024-02-09T04:58:32.881Z,8.22
2024-02-09T05:01:03.013Z,8.24
2024-02-09T05:03:35.603Z,8.09
2024-02-09T05:06:05.624Z,8.02
2024-02-09T05:08:35.621Z,7.99
2024-02-09T05:11:06.392Z,7.96
2024-02-09T05:13:38.875Z,7.84
2024-02-09T05:16:10.391Z,7.89
2024-02-09T05:18:42.952Z,7.85
2024-02-09T05:21:12.969Z,7.88
2024-02-09T05:23:43.167Z,7.84
2024-02-09T05:26:13.951Z,7.79
2024-02-09T05:28:48.368Z,7.85
2024-02-09T05:31:24.529Z,7.96
2024-02-09T05:33:57.079Z,7.99
2024-02-09T05:36:27.966Z,8.02
2024-02-09T05:39:00.383Z,7.92
2024-02-09T05:41:31.989Z,7.84
2024-02-09T05:44:02.520Z,7.78
2024-02-09T05:46:32.916Z,7.75
2024-02-09T05:49:08.767Z,7.76
2024-02-09T05:51:38.899Z,7.83
2024-02-09T05:54:08.797Z,7.78
2024-02-09T05:56:38.802Z,7.78
2024-02-09T05:59:09.211Z,7.83
2024-02-09T06:01:39.826Z,7.91
2024-02-09T06:04:12.534Z,7.98
2024-02-09T06:06:46.486Z,7.99
2024-02-09T06:09:16.620Z,8.04
2024-02-09T06:11:46.566Z,8.14
2024-02-09T06:14:18.228Z,8.19
2024-02-09T06:16:48.856Z,8.28
2024-02-09T06:19:25.212Z,8.46
2024-02-09T06:21:57.124Z,8.52
2024-02-09T06:24:27.223Z,8.59
2024-02-09T06:26:58.341Z,8.59
2024-02-09T06:29:32.607Z,8.67
2024-02-09T06:32:05.282Z,8.68
2024-02-09T06:34:37.994Z,8.70
2024-02-09T06:37:08.421Z,8.65
2024-02-09T06:39:38.500Z,8.67
2024-02-09T06:42:08.669Z,8.61
2024-02-09T06:44:44.112Z,8.56
2024-02-09T06:47:14.271Z,8.57
2024-02-09T06:49:48.772Z,8.59
2024-02-09T06:52:19.570Z,8.56
2024-02-09T06:54:49.491Z,8.59
2024-02-09T06:57:23.622Z,8.61
2024-02-09T06:59:54.833Z,8.57
2024-02-09T07:02:24.890Z,8.54
2024-02-09T07:05:02.581Z,8.54
2024-02-09T07:07:34.315Z,8.55
2024-02-09T07:10:04.438Z,8.59
2024-02-09T07:12:34.431Z,8.63
2024-02-09T07:15:07.357Z,8.59
2024-02-09T07:17:37.362Z,8.59
2024-02-09T07:20:11.740Z,8.60
2024-02-09T07:22:41.910Z,8.66
2024-02-09T07:25:12.358Z,8.59
2024-02-09T07:27:42.323Z,8.58
2024-02-09T07:30:14.392Z,8.59
2024-02-09T07:32:44.311Z,8.64
2024-02-09T07:35:17.145Z,8.64
2024-02-09T07:37:47.189Z,8.59
2024-02-09T07:40:20.378Z,8.63
2024-02-09T07:42:50.508Z,8.68
2024-02-09T07:48:16.008Z,8.86
2024-02-09T07:50:52.837Z,8.83
2024-02-09T07:53:22.835Z,8.87
2024-02-09T07:55:58.865Z,8.89
2024-02-09T07:58:29.609Z,8.94
2024-02-09T08:00:59.655Z,8.90
2024-02-09T08:03:29.583Z,8.83
2024-02-09T08:06:02.150Z,8.89
2024-02-09T08:08:32.084Z,8.92
2024-02-09T08:11:01.960Z,8.89
2024-02-09T08:13:32.426Z,8.88
2024-02-09T08:16:02.409Z,8.93
2024-02-09T08:18:33.302Z,8.99
2024-02-09T08:21:05.969Z,9.02
2024-02-09T08:23:35.917Z,9.05
2024-02-09T08:26:07.839Z,9.16
2024-02-09T08:28:39.900Z,9.30
2024-02-09T08:31:12.302Z,9.47
2024-02-09T08:33:44.976Z,9.72
2024-02-09T08:36:18.664Z,9.98
2024-02-09T08:38:48.654Z,10.24
2024-02-09T08:41:16.107Z,10.76
2024-02-09T08:43:46.108Z,11.40
2024-02-09T08:46:16.361Z,11.67
2024-02-09T08:48:46.369Z,11.85
2024-02-09T08:51:18.983Z,12.07
2024-02-09T08:53:50.261Z,12.21
2024-02-09T08:56:21.341Z,12.38
2024-02-09T08:58:51.435Z,12.45
2024-02-09T09:01:21.504Z,12.58
2024-02-09T09:03:51.442Z,12.59
2024-02-09T09:06:25.108Z,12.60
2024-02-09T09:08:56.179Z,12.61
2024-02-09T09:11:26.052Z,12.69
2024-02-09T09:13:56.043Z,12.69
2024-02-09T09:16:26.258Z,12.69
2024-02-09T09:18:56.315Z,12.69
2024-02-09T09:21:28.837Z,12.64
2024-02-09T09:24:02.783Z,12.86
2024-02-09T09:26:32.878Z,12.87
2024-02-09T09:29:03.079Z,13.04
2024-02-09T09:31:33.706Z,13.15
2024-02-09T09:34:05.062Z,13.26
2024-02-09T09:36:37.888Z,13.35
2024-02-09T09:39:08.315Z,13.38
2024-02-09T09:41:42.234Z,13.26
2024-02-09T09:44:12.320Z,13.40
2024-02-09T09:46:46.698Z,13.40
2024-02-09T09:49:17.983Z,13.45
2024-02-09T09:51:53.840Z,13.49
2024-02-09T09:54:26.210Z,13.56
2024-02-09T09:56:57.762Z,13.57
2024-02-09T09:59:28.001Z,13.68
2024-02-09T10:01:58.946Z,13.72
2024-02-09T10:04:29.298Z,13.83
2024-02-09T10:07:03.067Z,13.81
2024-02-09T10:09:33.042Z,13.87
2024-02-09T10:12:07.885Z,13.85
2024-02-09T10:14:41.073Z,13.82
2024-02-09T10:17:13.073Z,13.89
2024-02-09T10:19:44.106Z,13.90
2024-02-09T10:22:23.934Z,13.82
2024-02-09T10:24:56.920Z,13.82
2024-02-09T10:27:26.976Z,13.79
2024-02-09T10:29:58.768Z,13.94
2024-02-09T10:32:29.611Z,13.96
2024-02-09T10:34:59.697Z,14.01
2024-02-09T10:37:32.856Z,14.02
2024-02-09T10:40:04.041Z,14.04
2024-02-09T10:42:38.072Z,14.06
2024-02-09T10:45:16.974Z,14.10
2024-02-09T10:47:55.793Z,14.09
2024-02-09T10:50:30.363Z,14.08
2024-02-09T10:53:08.230Z,14.14
2024-02-09T10:55:43.621Z,14.06
2024-02-09T10:58:19.714Z,14.03
2024-02-09T11:00:50.469Z,14.03
2024-02-09T11:03:21.413Z,14.06
2024-02-09T11:05:51.940Z,13.98
2024-02-09T11:08:28.525Z,13.99
2024-02-09T11:11:28.949Z,13.95
2024-02-09T11:14:13.061Z,13.92
2024-02-09T11:16:59.957Z,13.89
2024-02-09T11:19:31.382Z,13.83
2024-02-09T11:22:02.867Z,13.92
2024-02-09T11:24:35.873Z,13.88
2024-02-09T11:27:06.664Z,13.90
2024-02-09T11:29:39.169Z,13.92
2024-02-09T11:32:09.962Z,13.98
2024-02-09T11:34:40.778Z,14.03
2024-02-09T11:37:11.378Z,14.01
2024-02-09T11:39:56.182Z,14.02
2024-02-09T11:42:35.509Z,13.99
2024-02-09T11:45:05.992Z,14.08
2024-02-09T11:47:37.490Z,14.13
2024-02-09T11:50:08.372Z,14.10
2024-02-09T11:52:41.910Z,14.21
2024-02-09T11:55:22.301Z,14.27
2024-02-09T12:00:55.465Z,14.21
2024-02-09T12:03:26.009Z,14.26
2024-02-09T12:06:14.024Z,14.34
2024-02-09T12:08:44.440Z,14.35
2024-02-09T12:11:20.461Z,14.31
2024-02-09T12:14:00.911Z,14.35
2024-02-09T12:16:34.219Z,14.36
2024-02-09T12:19:09.301Z,14.41
2024-02-09T12:22:20.546Z,14.41
2024-02-09T12:25:05.307Z,14.33
2024-02-09T12:30:32.153Z,14.34
2024-02-09T12:33:09.705Z,14.39
2024-02-09T12:35:45.146Z,14.43
2024-02-09T12:38:27.635Z,14.44
2024-02-09T12:41:14.527Z,14.48
2024-02-09T12:44:03.955Z,14.48
2024-02-09T12:46:39.363Z,14.55
2024-02-09T12:49:19.520Z,14.49
2024-02-09T12:52:00.102Z,14.36
2024-02-09T12:54:31.888Z,14.34
2024-02-09T12:57:08.158Z,14.32
2024-02-09T13:00:19.329Z,14.34
2024-02-09T13:03:05.594Z,14.29
2024-02-09T13:05:45.097Z,14.24
2024-02-09T13:08:16.868Z,14.20
2024-02-09T13:10:48.060Z,14.16
2024-02-09T13:13:33.395Z,14.11
2024-02-09T13:16:20.578Z,14.04
2024-02-09T13:18:50.773Z,14.04
2024-02-09T13:21:22.792Z,13.97
2024-02-09T13:23:54.852Z,14.00
2024-02-09T13:26:26.688Z,13.97
2024-02-09T13:28:56.720Z,13.91
2024-02-09T13:31:29.416Z,13.92
2024-02-09T13:34:08.628Z,13.96
2024-02-09T13:36:43.994Z,13.88
2024-02-09T13:39:18.180Z,13.81
2024-02-09T13:41:48.429Z,13.86
2024-02-09T13:44:22.993Z,13.80
2024-02-09T13:46:55.704Z,13.73
2024-02-09T13:49:30.069Z,13.74
2024-02-09T13:52:10.508Z,13.81
2024-02-09T13:54:40.680Z,13.82
2024-02-09T13:57:19.688Z,13.77
2024-02-09T13:59:58.418Z,13.78
2024-02-09T14:02:54.666Z,13.77
2024-02-09T14:05:40.098Z,13.71
2024-02-09T14:08:27.724Z,13.69
2024-02-09T14:11:05.574Z,13.70
2024-02-09T14:13:42.827Z,13.72
2024-02-09T14:16:13.111Z,13.65
2024-02-09T14:18:48.912Z,13.63
2024-02-09T14:21:18.864Z,13.70
2024-02-09T14:23:48.753Z,13.62
2024-02-09T14:26:20.911Z,13.73
2024-02-09T14:28:50.975Z,13.66
2024-02-09T14:31:22.197Z,13.59
2024-02-09T14:33:54.844Z,13.61
2024-02-09T14:36:26.342Z,13.65
2024-02-09T14:38:57.964Z,13.64
2024-02-09T14:41:28.118Z,13.55
2024-02-09T14:43:59.830Z,13.63
2024-02-09T14:46:35.949Z,13.64
2024-02-09T14:49:14.315Z,13.62
2024-02-09T14:51:50.031Z,13.61
2024-02-09T14:54:32.805Z,13.62
2024-02-09T14:57:04.819Z,13.70
2024-02-09T14:59:35.211Z,13.68
2024-02-09T15:02:05.345Z,13.74
2024-02-09T15:04:43.410Z,13.62
2024-02-09T15:07:15.554Z,13.63
2024-02-09T15:09:45.594Z,13.58
2024-02-09T15:12:20.039Z,13.55
2024-02-09T15:14:51.885Z,13.50
2024-02-09T15:17:24.467Z,13.56
2024-02-09T15:19:57.325Z,13.56
2024-02-09T15:25:12.183Z,13.53
2024-02-09T15:27:42.150Z,13.54
2024-02-09T15:30:13.814Z,13.52
2024-02-09T15:32:44.075Z,13.42
2024-02-09T15:35:22.514Z,13.30
2024-02-09T15:37:56.670Z,13.32
2024-02-09T15:40:27.900Z,13.28
2024-02-09T15:42:58.265Z,13.18
2024-02-09T15:45:28.265Z,13.11
2024-02-09T15:48:00.978Z,13.00
2024-02-09T15:50:33.568Z,13.05
2024-02-09T15:53:03.598Z,12.91
2024-02-09T15:55:33.697Z,12.89
2024-02-09T15:58:06.347Z,12.85
2024-02-09T16:00:36.618Z,12.86
2024-02-09T16:05:44.142Z,12.83
2024-02-09T16:08:14.437Z,12.86
2024-02-09T16:10:47.610Z,12.85
2024-02-09T16:13:17.729Z,12.89
2024-02-09T16:15:47.815Z,12.88
2024-02-09T16:18:18.228Z,12.80
2024-02-09T16:20:51.157Z,12.78
2024-02-09T16:23:18.635Z,12.66
2024-02-09T16:25:59.444Z,12.75
2024-02-09T16:28:38.116Z,12.75
2024-02-09T16:31:10.098Z,12.72
2024-02-09T16:33:40.609Z,12.61
2024-02-09T16:36:23.382Z,12.56
2024-02-09T16:38:54.704Z,12.50
2024-02-09T16:41:52.871Z,12.44
2024-02-09T16:44:25.167Z,12.49
2024-02-09T16:46:55.365Z,12.43
2024-02-09T16:49:25.553Z,12.47
2024-02-09T16:51:58.233Z,12.45
2024-02-09T16:54:28.977Z,12.34
2024-02-09T16:56:59.153Z,12.44
2024-02-09T16:59:29.299Z,12.35
2024-02-09T17:02:00.948Z,12.37
2024-02-09T17:04:31.344Z,12.40
2024-02-09T17:07:04.233Z,12.40
2024-02-09T17:09:34.645Z,12.34
2024-02-09T17:12:04.774Z,12.41
2024-02-09T17:14:34.824Z,12.40
2024-02-09T17:17:09.212Z,12.38
2024-02-09T17:19:39.489Z,12.33
2024-02-09T17:22:12.424Z,12.32
2024-02-09T17:24:42.786Z,12.24
2024-02-09T17:27:13.192Z,12.26
2024-02-09T17:29:43.219Z,12.24
2024-02-09T17:32:13.542Z,12.37
2024-02-09T17:34:44.084Z,12.34
2024-02-09T17:37:16.805Z,12.42
2024-02-09T17:39:47.650Z,12.37
2024-02-09T17:42:18.045Z,12.41
2024-02-09T17:44:48.522Z,12.50
2024-02-09T17:47:18.511Z,12.46
2024-02-09T17:49:48.444Z,12.44
2024-02-09T17:52:21.433Z,12.39
2024-02-09T17:54:51.494Z,12.41
2024-02-09T17:57:21.445Z,12.32
2024-02-09T17:59:51.659Z,12.32
2024-02-09T18:02:21.931Z,12.29
2024-02-09T18:04:52.037Z,12.44
2024-02-09T18:07:25.919Z,12.36
2024-02-09T18:09:55.870Z,12.37
2024-02-09T18:12:25.952Z,12.36
2024-02-09T18:14:59.659Z,12.34
2024-02-09T18:17:29.426Z,12.34
2024-02-09T18:19:59.770Z,12.36
2024-02-09T18:22:32.776Z,12.32
2024-02-09T18:25:02.764Z,12.27
2024-02-09T18:27:32.879Z,12.32
2024-02-09T18:30:02.856Z,12.26
2024-02-09T18:32:32.873Z,12.19
2024-02-09T18:35:03.554Z,12.17
2024-02-09T18:37:36.140Z,12.19
2024-02-09T18:40:16.801Z,12.20
2024-02-09T18:42:50.942Z,12.14
2024-02-09T18:45:37.719Z,12.15
2024-02-09T19:05:44.393Z,12.21
2024-02-09T19:08:14.683Z,12.31
2024-02-09T19:10:45.083Z,12.34
2024-02-09T19:13:15.984Z,12.26
2024-02-09T19:15:46.348Z,12.26
2024-02-09T19:18:19.281Z,12.26
2024-02-09T19:20:51.986Z,12.19
2024-02-09T19:23:22.197Z,12.12
2024-02-09T19:25:52.457Z,12.10
2024-02-09T19:28:22.686Z,12.04
2024-02-09T19:30:52.686Z,12.01
2024-02-09T19:33:24.478Z,11.96
2024-02-09T19:35:57.133Z,11.85
2024-02-09T19:38:27.152Z,11.87
2024-02-09T19:40:58.145Z,11.77
2024-02-09T19:43:28.143Z,11.71
2024-02-09T19:46:01.217Z,11.59
2024-02-09T19:48:31.372Z,11.55
2024-02-09T19:51:31.402Z,11.45
2024-02-09T19:54:27.649Z,11.41
2024-02-09T19:57:19.900Z,11.30
2024-02-09T19:59:54.263Z,11.19
2024-02-09T20:02:38.818Z,11.17
2024-02-09T20:05:20.211Z,11.14
2024-02-09T20:08:16.782Z,11.12
2024-02-09T20:11:03.868Z,11.08
2024-02-09T20:13:35.561Z,11.09
2024-02-09T20:16:11.204Z,11.04
2024-02-09T20:18:45.526Z,11.07
2024-02-09T20:21:41.170Z,11.08
2024-02-09T20:24:15.444Z,11.04
2024-02-09T20:27:00.033Z,11.09
2024-02-09T20:29:40.052Z,11.01
2024-02-09T20:32:23.547Z,10.98
2024-02-09T20:34:59.554Z,10.98
2024-02-09T20:37:42.155Z,10.91
2024-02-09T20:40:24.114Z,10.93
2024-02-09T20:43:11.034Z,10.93
2024-02-09T20:45:55.234Z,11.06
2024-02-09T20:48:35.588Z,11.24
2024-02-09T20:51:22.818Z,11.51
2024-02-09T20:54:01.341Z,11.55
2024-02-09T20:56:50.939Z,11.84
2024-02-09T20:59:33.814Z,11.95
2024-02-09T21:02:18.475Z,11.97
2024-02-09T21:04:53.442Z,12.07
2024-02-09T21:07:24.563Z,12.13
2024-02-09T21:10:09.898Z,12.21
2024-02-09T21:12:50.921Z,12.33
2024-02-09T21:15:22.684Z,12.19
2024-02-09T21:17:56.530Z,12.28
2024-02-09T21:20:28.900Z,12.33
2024-02-09T21:22:59.869Z,12.27
2024-02-09T21:25:32.754Z,12.34
2024-02-09T21:28:15.689Z,12.34
2024-02-09T21:31:05.436Z,12.42
2024-02-09T21:33:45.664Z,12.37
2024-02-09T21:36:21.073Z,12.34
2024-02-09T21:39:05.056Z,12.40
2024-02-09T21:41:42.539Z,12.34
2024-02-09T21:44:25.291Z,12.43
2024-02-09T21:47:03.809Z,12.36
2024-02-09T21:49:42.203Z,12.31
2024-02-09T21:52:17.916Z,12.39
2024-02-09T21:55:14.805Z,12.35
2024-02-09T21:57:55.408Z,12.29
2024-02-09T22:00:31.433Z,12.17
2024-02-09T22:03:32.700Z,12.17
2024-02-09T22:06:29.282Z,12.10
2024-02-09T22:09:33.623Z,12.01
2024-02-09T22:12:37.992Z,11.99
2024-02-09T22:15:28.044Z,11.99
2024-02-09T22:18:24.208Z,11.95
2024-02-09T22:21:21.736Z,11.98
2024-02-09T22:24:07.502Z,11.98
2024-02-09T22:26:50.881Z,11.95
2024-02-09T22:30:09.581Z,11.91
2024-02-09T22:32:59.064Z,11.86
2024-02-09T22:35:53.635Z,11.74
2024-02-09T22:38:38.671Z,11.72
2024-02-09T22:41:23.826Z,11.62
2024-02-09T22:44:12.364Z,11.52
2024-02-09T22:46:53.935Z,11.48
2024-02-09T22:49:49.725Z,11.34
2024-02-09T22:52:42.546Z,11.30
2024-02-09T22:55:39.179Z,11.31
2024-02-09T22:58:14.507Z,11.19
2024-02-09T23:00:53.722Z,11.17
2024-02-09T23:03:44.463Z,11.23
2024-02-09T23:06:28.993Z,11.21
2024-02-09T23:09:20.781Z,11.19
2024-02-09T23:12:09.238Z,11.20
2024-02-09T23:14:41.045Z,11.20
2024-02-09T23:17:11.187Z,11.23
2024-02-09T23:19:41.387Z,11.15
2024-02-09T23:22:16.033Z,11.14
2024-02-09T23:24:51.107Z,11.14
2024-02-09T23:27:22.267Z,11.08
2024-02-09T23:29:53.248Z,11.05
2024-02-09T23:32:23.544Z,11.00
2024-02-09T23:34:54.578Z,10.96
2024-02-09T23:37:24.783Z,10.93
2024-02-09T23:39:57.809Z,10.87
2024-02-09T23:42:28.246Z,10.86
2024-02-09T23:44:58.462Z,10.80
2024-02-09T23:47:29.037Z,10.72
2024-02-09T23:50:00.649Z,10.68
2024-02-09T23:52:31.006Z,10.67
2024-02-09T23:55:03.798Z,10.62
2024-02-09T23:57:34.269Z,10.65
